createdAt,value
2023-03-11T00:01:40.321Z,97706.04
2023-03-11T00:04:10.258Z,97707.41
2023-03-11T00:06:41.556Z,97718.31
2023-03-11T00:09:11.920Z,97714.77
2023-03-11T00:11:41.856Z,97692.14
2023-03-11T00:14:13.163Z,97689.69
2023-03-11T00:16:43.279Z,97678.23
2023-03-11T00:19:13.251Z,97678.51
2023-03-11T00:21:43.176Z,97669.78
2023-03-11T00:24:14.318Z,97646.62
2023-03-11T00:26:44.160Z,97643.07
2023-03-11T00:29:14.375Z,97646.62
2023-03-11T00:31:44.403Z,97646.58
2023-03-11T00:34:15.788Z,97650.67
2023-03-11T00:36:45.911Z,97635.69
2023-03-11T00:39:16.097Z,97620.42
2023-03-11T00:41:46.256Z,97614.66
2023-03-11T00:44:16.108Z,97608.16
2023-03-11T00:46:46.198Z,97603.77
2023-03-11T00:49:16.256Z,97596.95
2023-03-11T00:51:46.077Z,97596.09
2023-03-11T00:54:16.068Z,97600.73
2023-03-11T00:56:45.976Z,97592.55
2023-03-11T00:59:15.840Z,97590.38
2023-03-11T01:01:45.806Z,97577.53
2023-03-11T01:04:15.729Z,97565.81
2023-03-11T01:06:46.026Z,97576.95
2023-03-11T01:09:16.550Z,97571.23
2023-03-11T01:11:46.378Z,97567.15
2023-03-11T01:14:16.429Z,97556.25
2023-03-11T01:16:49.892Z,97558.40
2023-03-11T01:19:19.744Z,97549.95
2023-03-11T01:21:51.896Z,97547.73
2023-03-11T01:24:22.804Z,97549.65
2023-03-11T01:26:56.163Z,97536.48
2023-03-11T01:29:26.965Z,97536.84
2023-03-11T01:32:00.009Z,97537.91
2023-03-11T01:34:29.874Z,97529.45
2023-03-11T01:36:59.735Z,97528.88
2023-03-11T01:39:29.880Z,97524.80
2023-03-11T01:41:59.683Z,97525.88
2023-03-11T01:44:32.095Z,97529.67
2023-03-11T01:47:08.075Z,97525.58
2023-03-11T01:49:39.581Z,97531.30
2023-03-11T01:52:09.424Z,97531.30
2023-03-11T01:54:40.619Z,97532.64
2023-03-11T01:57:12.022Z,97510.66
2023-03-11T01:59:44.196Z,97524.98
2023-03-11T02:02:31.861Z,97526.86
2023-03-11T02:05:02.160Z,97536.39
2023-03-11T02:07:32.892Z,97547.28
2023-03-11T02:10:03.141Z,97555.16
2023-03-11T02:12:33.386Z,97550.80
2023-03-11T02:15:03.321Z,97546.71
2023-03-11T02:17:33.721Z,97538.47
2023-03-11T02:20:25.855Z,97539.02
2023-03-11T02:22:57.923Z,97535.17
2023-03-11T02:25:30.642Z,97529.97
2023-03-11T02:28:00.842Z,97533.23
2023-03-11T02:30:30.969Z,97533.23
2023-03-11T02:33:00.969Z,97531.33
2023-03-11T02:35:30.829Z,97534.56
2023-03-11T02:38:00.736Z,97525.58
2023-03-11T02:40:38.943Z,97534.53
2023-03-11T02:43:12.914Z,97538.11
2023-03-11T02:45:42.884Z,97535.62
2023-03-11T02:48:13.165Z,97542.67
2023-03-11T02:50:42.992Z,97551.12
2023-03-11T02:53:12.823Z,97547.58
2023-03-11T02:55:42.996Z,97547.23
2023-03-11T02:58:12.882Z,97547.23
2023-03-11T03:00:42.729Z,97549.45
2023-03-11T03:03:20.002Z,97543.97
2023-03-11T03:05:50.275Z,97553.50
2023-03-11T03:08:20.448Z,97548.05
2023-03-11T03:10:50.649Z,97550.20
2023-03-11T03:13:21.146Z,97539.03
2023-03-11T03:15:51.201Z,97525.11
2023-03-11T03:18:21.154Z,97501.39
2023-03-11T03:20:51.303Z,97492.44
2023-03-11T03:23:23.482Z,97491.86
2023-03-11T03:25:54.350Z,97504.96
2023-03-11T03:28:28.017Z,97503.30
2023-03-11T03:30:58.073Z,97495.64
2023-03-11T03:33:27.984Z,97485.29
2023-03-11T03:35:57.910Z,97490.46
2023-03-11T03:38:27.954Z,97481.45
2023-03-11T03:41:00.228Z,97477.36
2023-03-11T03:43:43.748Z,97471.88
2023-03-11T03:46:13.832Z,97478.69
2023-03-11T03:48:43.803Z,97475.15
2023-03-11T03:51:14.045Z,97465.89
2023-03-11T03:53:43.998Z,97460.69
2023-03-11T03:56:14.983Z,97463.69
2023-03-11T03:58:44.859Z,97455.25
2023-03-11T04:01:14.717Z,97462.87
2023-03-11T04:03:53.271Z,97468.58
2023-03-11T04:06:24.766Z,97469.95
2023-03-11T04:08:55.289Z,97471.27
2023-03-11T04:11:25.439Z,97474.23
2023-03-11T04:13:56.352Z,97484.31
2023-03-11T04:16:26.450Z,97484.03
2023-03-11T04:18:57.524Z,97470.91
2023-03-11T04:21:29.704Z,97466.03
2023-03-11T04:23:59.691Z,97465.77
2023-03-11T04:26:29.905Z,97462.23
2023-03-11T04:28:59.749Z,97454.57
2023-03-11T04:31:29.665Z,97438.23
2023-03-11T04:33:59.756Z,97448.28
2023-03-11T04:36:29.685Z,97439.84
2023-03-11T04:38:59.594Z,97445.02
2023-03-11T04:41:29.653Z,97453.69
2023-03-11T04:44:00.491Z,97461.03
2023-03-11T04:46:30.447Z,97458.04
2023-03-11T04:49:01.749Z,97434.09
2023-03-11T04:51:31.890Z,97422.90
2023-03-11T04:54:01.846Z,97415.01
2023-03-11T04:56:32.880Z,97423.98
2023-03-11T04:59:04.036Z,97431.03
2023-03-11T05:01:33.906Z,97428.85
2023-03-11T05:04:05.360Z,97416.33
2023-03-11T05:06:36.003Z,97413.58
2023-03-11T05:09:05.906Z,97420.92
2023-03-11T05:11:35.936Z,97422.29
2023-03-11T05:14:05.823Z,97406.20
2023-03-11T05:16:36.461Z,97391.50
2023-03-11T05:19:07.854Z,97395.59
2023-03-11T05:21:37.800Z,97384.13
2023-03-11T05:24:07.907Z,97374.60
2023-03-11T05:26:38.719Z,97374.84
2023-03-11T05:29:08.582Z,97367.77
2023-03-11T05:31:38.468Z,97374.00
2023-03-11T05:34:08.578Z,97383.24
2023-03-11T05:36:38.429Z,97383.75
2023-03-11T05:39:08.422Z,97364.98
2023-03-11T05:41:38.309Z,97357.88
2023-03-11T05:44:08.408Z,97367.40
2023-03-11T05:46:38.390Z,97367.64
2023-03-11T05:49:08.403Z,97355.64
2023-03-11T05:51:38.836Z,97346.96
2023-03-11T05:56:40.534Z,97339.59
2023-03-11T05:59:10.936Z,97337.92
2023-03-11T06:01:40.973Z,97339.28
2023-03-11T06:04:10.989Z,97340.37
2023-03-11T06:06:43.709Z,97345.81
2023-03-11T06:09:16.592Z,97336.83
2023-03-11T06:11:46.472Z,97320.75
2023-03-11T06:14:16.809Z,97307.16
2023-03-11T06:16:46.753Z,97316.40
2023-03-11T06:19:16.666Z,97309.33
2023-03-11T06:21:46.499Z,97307.39
2023-03-11T06:24:17.996Z,97293.79
2023-03-11T06:26:48.038Z,97282.34
2023-03-11T06:29:17.865Z,97272.55
2023-03-11T06:31:49.205Z,97267.11
2023-03-11T06:34:19.088Z,97265.44
2023-03-11T06:36:49.017Z,97257.02
2023-03-11T06:39:18.959Z,97254.27
2023-03-11T06:41:48.817Z,97254.80
2023-03-11T06:44:18.765Z,97244.71
2023-03-11T06:46:48.957Z,97248.79
2023-03-11T06:49:18.799Z,97250.94
2023-03-11T06:51:48.951Z,97259.09
2023-03-11T06:54:19.019Z,97258.01
2023-03-11T06:56:48.857Z,97251.17
2023-03-11T06:59:18.791Z,97251.42
2023-03-11T07:01:48.727Z,97246.52
2023-03-11T07:04:18.640Z,97236.73
2023-03-11T07:06:48.750Z,97233.44
2023-03-11T07:09:18.684Z,97226.64
2023-03-11T07:11:48.555Z,97233.17
2023-03-11T07:14:18.773Z,97233.95
2023-03-11T07:16:48.841Z,97242.63
2023-03-11T07:19:18.874Z,97239.60
2023-03-11T07:21:48.759Z,97229.81
2023-03-11T07:24:19.049Z,97214.83
2023-03-11T07:26:49.192Z,97236.85
2023-03-11T07:29:19.909Z,97227.30
2023-03-11T07:31:50.331Z,97214.80
2023-03-11T07:34:20.507Z,97200.62
2023-03-11T07:36:50.634Z,97188.13
2023-03-11T07:39:20.717Z,97204.67
2023-03-11T07:41:50.555Z,97197.06
2023-03-11T07:44:20.471Z,97195.44
2023-03-11T07:46:50.395Z,97177.47
2023-03-11T07:49:20.788Z,97178.55
2023-03-11T07:51:50.844Z,97184.77
2023-03-11T07:54:20.772Z,97172.51
2023-03-11T07:56:50.926Z,97171.97
2023-03-11T07:59:21.365Z,97157.29
2023-03-11T08:01:51.408Z,97146.66
2023-03-11T08:04:21.274Z,97143.40
2023-03-11T08:06:51.247Z,97137.97
2023-03-11T08:09:21.186Z,97131.17
2023-03-11T08:11:51.322Z,97128.42
2023-03-11T08:14:21.391Z,97122.71
2023-03-11T08:16:51.250Z,97111.27
2023-03-11T08:19:21.110Z,97108.01
2023-03-11T08:24:31.161Z,97093.28
2023-03-11T08:27:00.961Z,97081.84
2023-03-11T08:29:30.798Z,97075.05
2023-03-11T08:32:00.591Z,97073.17
2023-03-11T08:34:31.144Z,97054.39
2023-03-11T08:37:01.072Z,97053.03
2023-03-11T08:39:30.863Z,97057.08
2023-03-11T08:42:00.846Z,97044.04
2023-03-11T08:44:30.820Z,97043.73
2023-03-11T08:47:00.818Z,97041.53
2023-03-11T08:49:34.870Z,97040.45
2023-03-11T08:52:05.054Z,97019.26
2023-03-11T08:54:35.139Z,97017.36
2023-03-11T08:57:05.407Z,97016.78
2023-03-11T08:59:35.348Z,97014.34
2023-03-11T09:02:05.517Z,97001.81
2023-03-11T09:04:35.363Z,97002.60
2023-03-11T09:07:05.591Z,96983.31
2023-03-11T09:09:35.530Z,96986.58
2023-03-11T09:12:05.474Z,96980.58
2023-03-11T09:14:39.473Z,96970.83
2023-03-11T09:17:09.364Z,96972.16
2023-03-11T09:19:39.196Z,96974.57
2023-03-11T09:22:09.115Z,96973.76
2023-03-11T09:24:39.015Z,96957.68
2023-03-11T09:27:08.852Z,96971.83
2023-03-11T09:29:38.676Z,96965.31
2023-03-11T09:32:08.688Z,96954.14
2023-03-11T09:34:40.023Z,96952.79
2023-03-11T09:37:11.142Z,96949.26
2023-03-11T09:39:41.206Z,96960.40
2023-03-11T09:42:22.080Z,96950.31
2023-03-11T09:44:54.612Z,96942.98
2023-03-11T09:47:30.592Z,96945.13
2023-03-11T09:50:24.299Z,96941.88
2023-03-11T09:53:04.282Z,96945.65
2023-03-11T09:55:56.297Z,96923.92
2023-03-11T09:58:44.106Z,96918.47
2023-03-11T10:01:24.936Z,96925.25
2023-03-11T10:04:24.205Z,96918.47
2023-03-11T10:06:55.235Z,96922.54
2023-03-11T10:09:33.935Z,96908.42
2023-03-11T10:12:28.571Z,96894.84
2023-03-11T10:15:23.331Z,96888.55
2023-03-11T10:18:04.842Z,96880.40
2023-03-11T10:20:55.479Z,96878.77
2023-03-11T10:23:51.787Z,96877.96
2023-03-11T10:26:24.356Z,96875.48
2023-03-11T10:28:58.069Z,96857.30
2023-03-11T10:31:33.801Z,96858.66
2023-03-11T10:34:09.326Z,96859.72
2023-03-11T10:36:41.689Z,96854.04
2023-03-11T10:39:12.958Z,96844.78
2023-03-11T10:41:50.793Z,96843.97
2023-03-11T10:44:24.641Z,96846.66
2023-03-11T10:46:54.691Z,96853.47
2023-03-11T10:49:25.067Z,96853.72
2023-03-11T10:51:55.178Z,96847.77
2023-03-11T10:54:32.165Z,96844.76
2023-03-11T10:57:09.214Z,96849.38
2023-03-11T10:59:52.572Z,96860.48
2023-03-11T11:02:28.057Z,96860.20
2023-03-11T11:05:19.717Z,96854.23
2023-03-11T11:07:54.088Z,96837.67
2023-03-11T11:10:53.027Z,96837.11
2023-03-11T11:13:23.872Z,96831.67
2023-03-11T11:16:04.292Z,96829.75
2023-03-11T11:18:38.756Z,96827.86
2023-03-11T11:21:16.827Z,96828.70
2023-03-11T11:23:53.940Z,96839.28
2023-03-11T11:26:27.152Z,96850.95
2023-03-11T11:29:16.885Z,96855.02
2023-03-11T11:31:47.635Z,96840.66
2023-03-11T11:34:26.324Z,96852.09
2023-03-11T11:36:58.022Z,96846.66
2023-03-11T11:39:29.645Z,96829.28
2023-03-11T11:41:59.690Z,96830.64
2023-03-11T11:44:32.316Z,96845.87
2023-03-11T11:47:07.920Z,96844.22
2023-03-11T11:49:37.951Z,96826.87
2023-03-11T11:52:21.534Z,96817.93
2023-03-11T11:55:00.318Z,96813.03
2023-03-11T11:57:30.148Z,96812.52
2023-03-11T11:59:59.990Z,96808.20
2023-03-11T12:02:32.951Z,96810.94
2023-03-11T12:05:29.751Z,96813.38
2023-03-11T12:08:04.832Z,96810.19
2023-03-11T12:10:36.171Z,96808.61
2023-03-11T12:13:20.493Z,96793.98
2023-03-11T12:15:52.031Z,96772.55
2023-03-11T12:18:31.057Z,96773.97
2023-03-11T12:21:01.090Z,96768.02
2023-03-11T12:23:45.631Z,96771.07
2023-03-11T12:26:24.048Z,96777.61
2023-03-11T12:29:16.598Z,96778.20
2023-03-11T12:31:46.725Z,96764.67
2023-03-11T12:34:18.331Z,96764.67
2023-03-11T12:36:48.347Z,96749.71
2023-03-11T12:39:25.993Z,96760.61
2023-03-11T12:42:21.683Z,96746.48
2023-03-11T12:44:51.540Z,96742.14
2023-03-11T12:47:26.269Z,96726.66
2023-03-11T12:49:58.136Z,96718.52
2023-03-11T12:52:30.153Z,96708.20
2023-03-11T12:55:02.710Z,96707.37
2023-03-11T12:57:35.420Z,96698.41
2023-03-11T13:03:18.495Z,96696.52
2023-03-11T13:06:03.102Z,96696.82
2023-03-11T13:08:47.242Z,96698.73
2023-03-11T13:11:38.321Z,96707.72
2023-03-11T13:14:33.592Z,96696.31
2023-03-11T13:17:31.643Z,96700.67
2023-03-11T13:20:01.451Z,96704.20
2023-03-11T13:22:46.762Z,96702.84
2023-03-11T13:25:34.081Z,96699.03
2023-03-11T13:28:18.565Z,96698.22
2023-03-11T13:30:53.951Z,96701.76
2023-03-11T13:33:45.422Z,96700.40
2023-03-11T13:36:51.424Z,96693.59
2023-03-11T13:39:46.418Z,96704.73
2023-03-11T13:42:34.043Z,96714.81
2023-03-11T13:45:05.326Z,96712.39
2023-03-11T13:47:35.421Z,96711.84
2023-03-11T13:50:10.597Z,96711.03
2023-03-11T13:52:56.786Z,96704.48
2023-03-11T13:55:32.473Z,96692.23
2023-03-11T13:58:04.996Z,96701.77
2023-03-11T14:00:35.160Z,96701.77
2023-03-11T14:03:07.422Z,96693.05
2023-03-11T14:05:38.064Z,96691.69
2023-03-11T14:08:22.384Z,96692.23
2023-03-11T14:10:55.751Z,96678.08
2023-03-11T14:13:27.126Z,96677.53
2023-03-11T14:16:10.077Z,96678.89
2023-03-11T14:18:42.241Z,96688.97
2023-03-11T14:21:22.500Z,96691.95
2023-03-11T14:23:53.045Z,96681.35
2023-03-11T14:26:28.335Z,96666.64
2023-03-11T14:29:01.127Z,96662.56
2023-03-11T14:31:41.362Z,96662.85
2023-03-11T14:34:19.384Z,96665.83
2023-03-11T14:36:51.621Z,96649.24
2023-03-11T14:39:35.283Z,96654.13
2023-03-11T14:42:22.630Z,96656.05
2023-03-11T14:45:17.950Z,96644.61
2023-03-11T14:48:05.718Z,96638.36
2023-03-11T14:50:37.352Z,96643.51
2023-03-11T14:53:32.090Z,96636.99
2023-03-11T14:56:03.715Z,96631.26
2023-03-11T14:58:41.451Z,96628.83
2023-03-11T15:01:22.305Z,96611.39
2023-03-11T15:03:58.284Z,96613.57
2023-03-11T15:06:31.999Z,96606.50
2023-03-11T15:09:05.055Z,96606.25
2023-03-11T15:11:52.868Z,96614.93
2023-03-11T15:14:29.927Z,96602.16
2023-03-11T15:17:05.185Z,96594.81
2023-03-11T15:19:35.538Z,96592.34
2023-03-11T15:22:33.643Z,96584.19
2023-03-11T15:25:04.770Z,96593.45
2023-03-11T15:27:36.962Z,96588.81
2023-03-11T15:30:09.552Z,96598.34
2023-03-11T15:32:41.694Z,96595.06
2023-03-11T15:35:19.469Z,96597.79
2023-03-11T15:37:50.284Z,96599.16
2023-03-11T15:40:43.841Z,96588.27
2023-03-11T15:43:20.420Z,96580.91
2023-03-11T15:45:50.797Z,96570.31
2023-03-11T15:48:20.758Z,96564.33
2023-03-11T15:50:56.423Z,96555.61
2023-03-11T15:53:28.083Z,96558.88
2023-03-11T15:56:06.945Z,96557.27
2023-03-11T15:58:32.009Z,96553.70
2023-03-11T16:01:02.019Z,96547.45
2023-03-11T16:03:31.874Z,96541.45
2023-03-11T16:06:01.837Z,96541.45
2023-03-11T16:08:31.739Z,96536.30
2023-03-11T16:11:01.584Z,96510.70
2023-03-11T16:13:31.452Z,96523.77
2023-03-11T16:16:02.848Z,96532.77
2023-03-11T16:18:33.069Z,96533.29
2023-03-11T16:21:32.905Z,96533.03
2023-03-11T16:24:01.979Z,96534.64
2023-03-11T16:26:31.827Z,96532.47
2023-03-11T16:29:16.583Z,96543.10
2023-03-11T16:31:33.504Z,96532.77
2023-03-11T16:34:03.362Z,96529.20
2023-03-11T16:36:33.607Z,96540.64
2023-03-11T16:39:03.770Z,96542.55
2023-03-11T16:41:44.271Z,96520.22
2023-03-11T16:44:14.224Z,96513.16
2023-03-11T16:46:44.104Z,96510.95
2023-03-11T16:49:14.032Z,96510.95
2023-03-11T16:51:44.179Z,96507.15
2023-03-11T16:54:14.026Z,96503.88
2023-03-11T16:56:43.984Z,96486.44
2023-03-11T16:59:14.200Z,96474.19
2023-03-11T17:01:44.100Z,96479.91
2023-03-11T17:04:14.208Z,96479.63
2023-03-11T17:06:44.309Z,96480.43
2023-03-11T17:09:14.473Z,96470.13
2023-03-11T17:11:44.278Z,96478.80
2023-03-11T17:14:16.889Z,96471.18
2023-03-11T17:16:46.256Z,96462.20
2023-03-11T17:19:16.064Z,96454.30
2023-03-11T17:21:46.018Z,96439.32
2023-03-11T17:24:15.861Z,96428.69
2023-03-11T17:26:45.710Z,96420.52
2023-03-11T17:29:16.272Z,96407.72
2023-03-11T17:31:46.474Z,96412.09
2023-03-11T17:34:16.408Z,96401.45
2023-03-11T17:36:46.540Z,96380.21
2023-03-11T17:39:16.350Z,96380.21
2023-03-11T17:41:46.376Z,96384.84
2023-03-11T17:44:16.274Z,96390.00
2023-03-11T17:46:46.298Z,96391.90
2023-03-11T17:49:17.998Z,96389.16
2023-03-11T17:51:47.909Z,96378.27
2023-03-11T17:54:17.792Z,96361.67
2023-03-11T17:56:47.702Z,96364.90
2023-03-11T17:59:18.109Z,96368.98
2023-03-11T18:01:48.016Z,96362.17
2023-03-11T18:04:18.147Z,96370.63
2023-03-11T18:06:48.140Z,96365.44
2023-03-11T18:09:17.968Z,96356.20
2023-03-11T18:11:47.916Z,96351.57
2023-03-11T18:14:17.789Z,96348.55
2023-03-11T18:16:47.801Z,96336.02
2023-03-11T18:19:17.910Z,96326.21
2023-03-11T18:21:47.781Z,96311.23
2023-03-11T18:24:17.687Z,96311.23
2023-03-11T18:26:47.593Z,96306.88
2023-03-11T18:29:18.008Z,96298.96
2023-03-11T18:31:48.460Z,96286.19
2023-03-11T18:34:19.202Z,96291.34
2023-03-11T18:36:50.031Z,96293.24
2023-03-11T18:39:20.213Z,96288.91
2023-03-11T18:41:51.177Z,96277.19
2023-03-11T18:44:22.834Z,96273.11
2023-03-11T18:46:52.720Z,96263.58
2023-03-11T18:49:22.546Z,96265.77
2023-03-11T18:51:52.407Z,96268.75
2023-03-11T18:54:22.404Z,96265.22
2023-03-11T18:56:52.345Z,96275.56
2023-03-11T18:59:22.171Z,96272.58
2023-03-11T19:01:55.129Z,96273.11
2023-03-11T19:04:25.395Z,96272.83
2023-03-11T19:06:55.580Z,96259.48
2023-03-11T19:09:26.545Z,96250.50
2023-03-11T19:11:57.536Z,96262.21
2023-03-11T19:14:27.574Z,96250.24
2023-03-11T19:16:57.718Z,96238.52
2023-03-11T19:19:28.628Z,96231.16
2023-03-11T19:21:58.640Z,96228.98
2023-03-11T19:24:30.073Z,96227.63
2023-03-11T19:27:00.022Z,96222.44
2023-03-11T19:29:29.971Z,96204.98
2023-03-11T19:32:01.739Z,96208.23
2023-03-11T19:34:31.447Z,96199.82
2023-03-11T19:37:03.765Z,96197.09
2023-03-11T19:39:33.712Z,96201.69
2023-03-11T19:42:04.663Z,96200.32
2023-03-11T19:44:34.674Z,96199.82
2023-03-11T19:47:04.622Z,96202.22
2023-03-11T19:49:34.687Z,96191.32
2023-03-11T19:52:06.014Z,96182.32
2023-03-11T19:54:36.101Z,96184.23
2023-03-11T19:57:07.298Z,96193.75
2023-03-11T19:59:39.713Z,96184.22
2023-03-11T20:02:11.785Z,96170.84
2023-03-11T20:04:43.202Z,96174.13
2023-03-11T20:07:14.830Z,96183.91
2023-03-11T20:09:44.737Z,96189.08
2023-03-11T20:12:14.622Z,96192.05
2023-03-11T20:14:48.120Z,96197.50
2023-03-11T20:17:19.635Z,96181.79
2023-03-11T20:19:49.582Z,96199.39
2023-03-11T20:22:20.701Z,96203.48
2023-03-11T20:24:54.825Z,96197.25
2023-03-11T20:27:27.052Z,96191.76
2023-03-11T20:29:57.706Z,96199.38
2023-03-11T20:32:29.060Z,96190.89
2023-03-11T20:35:00.344Z,96200.71
2023-03-11T20:37:31.986Z,96190.06
2023-03-11T20:40:02.057Z,96196.59
2023-03-11T20:42:31.955Z,96205.30
2023-03-11T20:45:02.153Z,96200.66
2023-03-11T20:47:34.483Z,96202.52
2023-03-11T20:50:04.384Z,96203.08
2023-03-11T20:52:35.736Z,96207.97
2023-03-11T20:55:07.531Z,96219.41
2023-03-11T20:57:37.663Z,96217.48
2023-03-11T21:00:12.224Z,96217.20
2023-03-11T21:02:42.454Z,96218.30
2023-03-11T21:05:13.114Z,96224.25
2023-03-11T21:07:42.967Z,96226.41
2023-03-11T21:10:13.818Z,96228.05
2023-03-11T21:12:43.907Z,96235.13
2023-03-11T21:15:14.576Z,96228.59
2023-03-11T21:17:44.414Z,96236.45
2023-03-11T21:20:14.562Z,96243.55
2023-03-11T21:22:44.742Z,96247.08
2023-03-11T21:25:14.622Z,96252.51
2023-03-11T21:27:44.769Z,96244.03
2023-03-11T21:30:15.493Z,96223.41
2023-03-11T21:32:45.797Z,96237.75
2023-03-11T21:35:16.054Z,96247.53
2023-03-11T21:37:47.342Z,96249.17
2023-03-11T21:40:17.544Z,96246.45
2023-03-11T21:42:47.474Z,96239.64
2023-03-11T21:45:18.279Z,96248.06
2023-03-11T21:47:48.349Z,96254.85
2023-03-11T21:50:18.265Z,96258.38
2023-03-11T21:52:48.248Z,96259.75
2023-03-11T21:55:18.176Z,96270.62
2023-03-11T21:57:48.185Z,96276.88
2023-03-11T22:00:18.942Z,96279.08
2023-03-11T22:02:48.888Z,96286.15
2023-03-11T22:05:21.176Z,96284.78
2023-03-11T22:07:51.565Z,96284.51
2023-03-11T22:10:21.812Z,96297.58
2023-03-11T22:12:51.867Z,96293.19
2023-03-11T22:15:22.199Z,96298.64
2023-03-11T22:17:52.574Z,96299.17
2023-03-11T22:20:22.635Z,96296.98
2023-03-11T22:22:52.591Z,96301.06
2023-03-11T22:25:22.437Z,96309.50
2023-03-11T22:27:52.662Z,96311.14
2023-03-11T22:30:23.145Z,96329.11
2023-03-11T22:32:53.033Z,96344.39
2023-03-11T22:35:22.882Z,96350.92
2023-03-11T22:37:52.789Z,96354.72
2023-03-11T22:40:22.741Z,96351.17
2023-03-11T22:42:52.580Z,96363.73
2023-03-11T22:45:23.589Z,96378.42
2023-03-11T22:47:54.704Z,96385.52
2023-03-11T22:50:24.550Z,96393.95
2023-03-11T22:52:54.700Z,96406.47
2023-03-11T22:55:24.508Z,96413.29
2023-03-11T22:57:54.352Z,96421.75
2023-03-11T23:00:24.325Z,96430.19
2023-03-11T23:02:57.470Z,96434.53
2023-03-11T23:05:28.488Z,96434.00
2023-03-11T23:07:59.197Z,96431.28
2023-03-11T23:10:30.312Z,96434.51
2023-03-11T23:13:00.184Z,96442.97
2023-03-11T23:15:30.257Z,96445.67
2023-03-11T23:18:02.065Z,96466.38
2023-03-11T23:20:32.025Z,96472.37
2023-03-11T23:23:02.026Z,96477.27
2023-03-11T23:25:31.947Z,96490.89
2023-03-11T23:28:02.766Z,96503.97
2023-03-11T23:30:32.751Z,96523.04
2023-03-11T23:33:03.578Z,96536.68
2023-03-11T23:35:33.666Z,96542.92
2023-03-11T23:38:03.737Z,96554.39
2023-03-11T23:40:33.638Z,96561.75
2023-03-11T23:43:04.460Z,96575.92
2023-03-11T23:45:34.355Z,96578.09
2023-03-11T23:48:04.180Z,96589.52
2023-03-11T23:50:34.080Z,96594.97
2023-03-11T23:53:03.925Z,96609.45
2023-03-11T23:55:33.866Z,96617.89
2023-03-11T23:58:03.808Z,96616.27
